sensor_id;sensor_type;location;lat;lon;timestamp;pressure;altitude;pressure_sealevel;temperature;humidity
7026;BME280;3554;42.132;24.786;2024-01-15T00:01:47;98874.66;;;-0.43;100.00
7026;BME280;3554;42.132;24.786;2024-01-15T00:04:14;98871.25;;;-0.45;100.00
7026;BME280;3554;42.132;24.786;2024-01-15T00:06:41;98834.56;;;-0.75;100.00
7026;BME280;3554;42.132;24.786;2024-01-15T00:09:09;98850.75;;;-0.58;100.00
7026;BME280;3554;42.132;24.786;2024-01-15T00:11:36;98867.00;;;-0.50;100.00
7026;BME280;3554;42.132;24.786;2024-01-15T00:14:02;98867.84;;;-0.51;100.00
7026;BME280;3554;42.132;24.786;2024-01-15T00:16:31;98870.41;;;-0.50;100.00
7026;BME280;3554;42.132;24.786;2024-01-15T00:18:58;98867.84;;;-0.50;100.00
7026;BME280;3554;42.132;24.786;2024-01-15T00:21:25;98864.44;;;-0.53;100.00
7026;BME280;3554;42.132;24.786;2024-01-15T00:23:52;98855.09;;;-0.66;100.00
7026;BME280;3554;42.132;24.786;2024-01-15T00:26:19;98865.34;;;-0.63;100.00
7026;BME280;3554;42.132;24.786;2024-01-15T00:28:46;98862.84;;;-0.81;100.00
7026;BME280;3554;42.132;24.786;2024-01-15T00:31:16;98866.22;;;-0.70;100.00
7026;BME280;3554;42.132;24.786;2024-01-15T00:33:44;98865.34;;;-0.65;100.00
7026;BME280;3554;42.132;24.786;2024-01-15T00:36:11;98862.78;;;-0.65;100.00
7026;BME280;3554;42.132;24.786;2024-01-15T00:38:39;98861.06;;;-0.61;100.00
7026;BME280;3554;42.132;24.786;2024-01-15T00:41:06;98857.66;;;-0.68;100.00
7026;BME280;3554;42.132;24.786;2024-01-15T00:43:32;98840.56;;;-0.75;100.00
7026;BME280;3554;42.132;24.786;2024-01-15T00:46:01;98853.34;;;-0.63;100.00
7026;BME280;3554;42.132;24.786;2024-01-15T00:48:28;98858.50;;;-0.69;100.00
7026;BME280;3554;42.132;24.786;2024-01-15T00:50:57;98844.81;;;-0.72;100.00
7026;BME280;3554;42.132;24.786;2024-01-15T00:53:25;98846.59;;;-0.85;100.00
7026;BME280;3554;42.132;24.786;2024-01-15T00:55:52;98798.72;;;-0.96;100.00
7026;BME280;3554;42.132;24.786;2024-01-15T00:58:19;98785.00;;;-0.94;100.00
7026;BME280;3554;42.132;24.786;2024-01-15T01:00:46;98844.78;;;-0.59;100.00
7026;BME280;3554;42.132;24.786;2024-01-15T01:03:13;98851.59;;;-0.55;100.00
7026;BME280;3554;42.132;24.786;2024-01-15T01:05:40;98854.19;;;-0.64;100.00
7026;BME280;3554;42.132;24.786;2024-01-15T01:08:08;98832.84;;;-0.72;100.00
7026;BME280;3554;42.132;24.786;2024-01-15T01:10:35;98846.59;;;-0.86;100.00
7026;BME280;3554;42.132;24.786;2024-01-15T01:13:02;98839.72;;;-0.78;100.00
7026;BME280;3554;42.132;24.786;2024-01-15T01:15:29;98835.41;;;-0.76;100.00
7026;BME280;3554;42.132;24.786;2024-01-15T01:17:56;98837.19;;;-0.89;100.00
7026;BME280;3554;42.132;24.786;2024-01-15T01:20:23;98835.50;;;-0.93;100.00
7026;BME280;3554;42.132;24.786;2024-01-15T01:22:50;98833.78;;;-0.88;100.00
7026;BME280;3554;42.132;24.786;2024-01-15T01:25:18;98836.31;;;-0.82;100.00
7026;BME280;3554;42.132;24.786;2024-01-15T01:27:45;98835.44;;;-0.81;100.00
7026;BME280;3554;42.132;24.786;2024-01-15T01:30:13;98829.50;;;-0.87;100.00
7026;BME280;3554;42.132;24.786;2024-01-15T01:32:39;98844.00;;;-0.83;100.00
7026;BME280;3554;42.132;24.786;2024-01-15T01:35:06;98839.94;;;-1.78;100.00
7026;BME280;3554;42.132;24.786;2024-01-15T01:37:34;98838.22;;;-1.58;100.00
7026;BME280;3554;42.132;24.786;2024-01-15T01:40:01;98838.19;;;-1.34;100.00
7026;BME280;3554;42.132;24.786;2024-01-15T01:42:29;98833.97;;;-1.57;100.00
7026;BME280;3554;42.132;24.786;2024-01-15T01:44:56;98833.94;;;-1.54;100.00
7026;BME280;3554;42.132;24.786;2024-01-15T01:47:23;98837.38;;;-1.46;100.00
7026;BME280;3554;42.132;24.786;2024-01-15T01:49:52;98830.53;;;-2.24;100.00
7026;BME280;3554;42.132;24.786;2024-01-15T01:52:19;98839.09;;;-2.14;100.00
7026;BME280;3554;42.132;24.786;2024-01-15T01:54:46;98833.97;;;-2.07;100.00
7026;BME280;3554;42.132;24.786;2024-01-15T01:57:14;98828.84;;;-2.08;100.00
7026;BME280;3554;42.132;24.786;2024-01-15T01:59:43;98823.72;;;-1.78;100.00
7026;BME280;3554;42.132;24.786;2024-01-15T02:02:11;98834.00;;;-1.80;100.00
7026;BME280;3554;42.132;24.786;2024-01-15T02:04:39;98828.00;;;-2.03;100.00
7026;BME280;3554;42.132;24.786;2024-01-15T02:07:06;98838.25;;;-1.80;100.00
7026;BME280;3554;42.132;24.786;2024-01-15T02:09:35;98845.09;;;-1.66;100.00
7026;BME280;3554;42.132;24.786;2024-01-15T02:12:02;98851.06;;;-1.76;100.00
7026;BME280;3554;42.132;24.786;2024-01-15T02:14:29;98829.69;;;-1.82;100.00
7026;BME280;3554;42.132;24.786;2024-01-15T02:16:58;98855.31;;;-1.60;100.00
7026;BME280;3554;42.132;24.786;2024-01-15T02:19:25;98847.63;;;-1.67;100.00
7026;BME280;3554;42.132;24.786;2024-01-15T02:21:51;98848.50;;;-1.67;100.00
7026;BME280;3554;42.132;24.786;2024-01-15T02:24:20;98850.19;;;-1.67;100.00
7026;BME280;3554;42.132;24.786;2024-01-15T02:26:47;98852.75;;;-1.61;100.00
7026;BME280;3554;42.132;24.786;2024-01-15T02:29:15;98850.19;;;-1.51;100.00
7026;BME280;3554;42.132;24.786;2024-01-15T02:31:42;98851.91;;;-1.45;100.00
7026;BME280;3554;42.132;24.786;2024-01-15T02:34:09;98858.75;;;-1.58;100.00
7026;BME280;3554;42.132;24.786;2024-01-15T02:36:35;98827.97;;;-1.61;100.00
7026;BME280;3554;42.132;24.786;2024-01-15T02:39:02;98841.63;;;-1.47;100.00
7026;BME280;3554;42.132;24.786;2024-01-15T02:41:31;98834.81;;;-1.57;100.00
7026;BME280;3554;42.132;24.786;2024-01-15T02:43:58;98850.19;;;-1.42;100.00
7026;BME280;3554;42.132;24.786;2024-01-15T02:46:25;98852.75;;;-1.43;100.00
7026;BME280;3554;42.132;24.786;2024-01-15T02:48:52;98850.16;;;-1.40;100.00
7026;BME280;3554;42.132;24.786;2024-01-15T02:51:21;98847.63;;;-1.52;100.00
7026;BME280;3554;42.132;24.786;2024-01-15T02:53:49;98846.78;;;-1.48;100.00
7026;BME280;3554;42.132;24.786;2024-01-15T02:56:16;98852.75;;;-1.43;100.00
7026;BME280;3554;42.132;24.786;2024-01-15T02:58:44;98844.19;;;-1.42;100.00
7026;BME280;3554;42.132;24.786;2024-01-15T03:01:11;98838.19;;;-1.44;100.00
7026;BME280;3554;42.132;24.786;2024-01-15T03:03:39;98828.78;;;-1.42;100.00
7026;BME280;3554;42.132;24.786;2024-01-15T03:06:06;98829.63;;;-1.39;100.00
7026;BME280;3554;42.132;24.786;2024-01-15T03:08:33;98828.81;;;-1.50;100.00
7026;BME280;3554;42.132;24.786;2024-01-15T03:11:01;98777.56;;;-1.78;100.00
7026;BME280;3554;42.132;24.786;2024-01-15T03:13:28;98820.25;;;-1.43;100.00
7026;BME280;3554;42.132;24.786;2024-01-15T03:15:56;98821.94;;;-1.39;100.00
7026;BME280;3554;42.132;24.786;2024-01-15T03:18:23;98829.63;;;-1.39;100.00
7026;BME280;3554;42.132;24.786;2024-01-15T03:20:50;98828.81;;;-1.39;100.00
7026;BME280;3554;42.132;24.786;2024-01-15T03:23:17;98829.66;;;-1.36;100.00
7026;BME280;3554;42.132;24.786;2024-01-15T03:25:44;98821.94;;;-1.34;100.00
7026;BME280;3554;42.132;24.786;2024-01-15T03:28:11;98819.38;;;-1.39;100.00
7026;BME280;3554;42.132;24.786;2024-01-15T03:30:38;98813.41;;;-1.39;100.00
7026;BME280;3554;42.132;24.786;2024-01-15T03:33:06;98807.41;;;-1.38;100.00
7026;BME280;3554;42.132;24.786;2024-01-15T03:35:33;98807.44;;;-1.50;100.00
7026;BME280;3554;42.132;24.786;2024-01-15T03:38:00;98805.72;;;-1.62;100.00
7026;BME280;3554;42.132;24.786;2024-01-15T03:40:27;98805.72;;;-1.48;100.00
7026;BME280;3554;42.132;24.786;2024-01-15T03:42:54;98807.44;;;-1.49;100.00
7026;BME280;3554;42.132;24.786;2024-01-15T03:45:21;98799.72;;;-1.47;100.00
7026;BME280;3554;42.132;24.786;2024-01-15T03:47:48;98812.53;;;-1.46;100.00
7026;BME280;3554;42.132;24.786;2024-01-15T03:50:16;98818.53;;;-1.42;100.00
7026;BME280;3554;42.132;24.786;2024-01-15T03:52:43;98817.69;;;-1.56;100.00
7026;BME280;3554;42.132;24.786;2024-01-15T03:55:10;98819.44;;;-1.63;100.00
7026;BME280;3554;42.132;24.786;2024-01-15T03:57:37;98813.41;;;-1.51;100.00
7026;BME280;3554;42.132;24.786;2024-01-15T04:00:06;98805.75;;;-1.63;100.00
7026;BME280;3554;42.132;24.786;2024-01-15T04:02:33;98801.50;;;-1.73;100.00
7026;BME280;3554;42.132;24.786;2024-01-15T04:05:00;98825.41;;;-1.77;100.00
7026;BME280;3554;42.132;24.786;2024-01-15T04:07:29;98818.59;;;-1.87;100.00
7026;BME280;3554;42.132;24.786;2024-01-15T04:09:56;98818.59;;;-1.75;100.00
7026;BME280;3554;42.132;24.786;2024-01-15T04:12:23;98818.59;;;-1.78;100.00
7026;BME280;3554;42.132;24.786;2024-01-15T04:14:50;98795.50;;;-2.11;100.00
7026;BME280;3554;42.132;24.786;2024-01-15T04:17:16;98816.00;;;-1.81;100.00
7026;BME280;3554;42.132;24.786;2024-01-15T04:19:44;98813.47;;;-1.69;100.00
7026;BME280;3554;42.132;24.786;2024-01-15T04:22:11;98818.56;;;-1.71;100.00
7026;BME280;3554;42.132;24.786;2024-01-15T04:24:40;98834.81;;;-1.79;100.00
7026;BME280;3554;42.132;24.786;2024-01-15T04:27:07;98807.50;;;-2.12;100.00
7026;BME280;3554;42.132;24.786;2024-01-15T04:29:34;98817.72;;;-1.86;100.00
7026;BME280;3554;42.132;24.786;2024-01-15T04:32:01;98814.31;;;-1.76;100.00
7026;BME280;3554;42.132;24.786;2024-01-15T04:34:27;98798.09;;;-1.78;100.00
7026;BME280;3554;42.132;24.786;2024-01-15T04:36:54;98808.31;;;-1.83;100.00
7026;BME280;3554;42.132;24.786;2024-01-15T04:39:21;98792.94;;;-1.86;100.00
7026;BME280;3554;42.132;24.786;2024-01-15T04:41:50;98793.81;;;-1.99;100.00
7026;BME280;3554;42.132;24.786;2024-01-15T04:44:17;98789.56;;;-2.03;100.00
7026;BME280;3554;42.132;24.786;2024-01-15T04:46:44;98780.16;;;-2.08;100.00
7026;BME280;3554;42.132;24.786;2024-01-15T04:49:11;98796.38;;;-2.00;100.00
7026;BME280;3554;42.132;24.786;2024-01-15T04:51:38;98798.09;;;-2.04;100.00
7026;BME280;3554;42.132;24.786;2024-01-15T04:54:05;98792.13;;;-2.12;100.00
7026;BME280;3554;42.132;24.786;2024-01-15T04:56:32;98787.84;;;-2.39;100.00
7026;BME280;3554;42.132;24.786;2024-01-15T04:59:00;98777.59;;;-2.39;100.00
7026;BME280;3554;42.132;24.786;2024-01-15T05:01:31;98785.22;;;-2.60;100.00
7026;BME280;3554;42.132;24.786;2024-01-15T05:03:58;98784.28;;;-2.99;100.00
7026;BME280;3554;42.132;24.786;2024-01-15T05:06:25;98773.97;;;-3.19;100.00
7026;BME280;3554;42.132;24.786;2024-01-15T05:08:52;98786.88;;;-2.89;100.00
7026;BME280;3554;42.132;24.786;2024-01-15T05:11:18;98787.78;;;-2.64;100.00
7026;BME280;3554;42.132;24.786;2024-01-15T05:13:45;98773.31;;;-2.55;100.00
7026;BME280;3554;42.132;24.786;2024-01-15T05:16:14;98763.06;;;-2.44;100.00
7026;BME280;3554;42.132;24.786;2024-01-15T05:18:41;98763.91;;;-2.33;100.00
7026;BME280;3554;42.132;24.786;2024-01-15T05:21:08;98774.16;;;-2.29;100.00
7026;BME280;3554;42.132;24.786;2024-01-15T05:23:35;98769.91;;;-2.27;100.00
7026;BME280;3554;42.132;24.786;2024-01-15T05:26:02;98771.59;;;-2.45;100.00
7026;BME280;3554;42.132;24.786;2024-01-15T05:28:29;98767.31;;;-2.42;100.00
7026;BME280;3554;42.132;24.786;2024-01-15T05:30:56;98771.59;;;-2.39;100.00
7026;BME280;3554;42.132;24.786;2024-01-15T05:33:25;98763.06;;;-2.28;100.00
7026;BME280;3554;42.132;24.786;2024-01-15T05:35:52;98753.66;;;-2.29;100.00
7026;BME280;3554;42.132;24.786;2024-01-15T05:38:19;98763.94;;;-2.23;100.00
7026;BME280;3554;42.132;24.786;2024-01-15T05:40:46;98753.66;;;-2.18;100.00
7026;BME280;3554;42.132;24.786;2024-01-15T05:43:13;98766.50;;;-2.42;100.00
7026;BME280;3554;42.132;24.786;2024-01-15T05:45:43;98756.13;;;-2.93;100.00
7026;BME280;3554;42.132;24.786;2024-01-15T05:48:10;98748.44;;;-2.92;100.00
7026;BME280;3554;42.132;24.786;2024-01-15T05:50:38;98741.69;;;-2.64;100.00
7026;BME280;3554;42.132;24.786;2024-01-15T05:53:06;98737.41;;;-2.73;100.00
7026;BME280;3554;42.132;24.786;2024-01-15T05:55:32;98796.34;;;-2.43;100.00
7026;BME280;3554;42.132;24.786;2024-01-15T05:57:59;98796.34;;;-2.41;100.00
7026;BME280;3554;42.132;24.786;2024-01-15T06:00:26;98812.56;;;-2.44;100.00
7026;BME280;3554;42.132;24.786;2024-01-15T06:02:53;98801.47;;;-2.41;100.00
7026;BME280;3554;42.132;24.786;2024-01-15T06:05:20;98738.25;;;-2.63;100.00
7026;BME280;3554;42.132;24.786;2024-01-15T06:07:48;98790.41;;;-2.17;100.00
7026;BME280;3554;42.132;24.786;2024-01-15T06:10:16;98793.81;;;-2.14;100.00
7026;BME280;3554;42.132;24.786;2024-01-15T06:12:43;98767.31;;;-2.21;100.00
7026;BME280;3554;42.132;24.786;2024-01-15T06:15:10;98769.03;;;-2.07;100.00
7026;BME280;3554;42.132;24.786;2024-01-15T06:17:37;98779.31;;;-2.01;100.00
7026;BME280;3554;42.132;24.786;2024-01-15T06:20:05;98777.59;;;-1.96;100.00
7026;BME280;3554;42.132;24.786;2024-01-15T06:22:32;98728.91;;;-2.08;100.00
7026;BME280;3554;42.132;24.786;2024-01-15T06:25:00;98797.25;;;-2.00;100.00
7026;BME280;3554;42.132;24.786;2024-01-15T06:27:28;98803.19;;;-2.11;100.00
7026;BME280;3554;42.132;24.786;2024-01-15T06:29:55;98804.06;;;-2.11;100.00
7026;BME280;3554;42.132;24.786;2024-01-15T06:32:22;98816.03;;;-1.96;100.00
7026;BME280;3554;42.132;24.786;2024-01-15T06:34:49;98803.19;;;-2.21;100.00
7026;BME280;3554;42.132;24.786;2024-01-15T06:37:16;98704.97;;;-2.80;100.00
7026;BME280;3554;42.132;24.786;2024-01-15T06:39:44;98790.41;;;-2.05;100.00
7026;BME280;3554;42.132;24.786;2024-01-15T06:42:12;98775.00;;;-2.11;100.00
7026;BME280;3554;42.132;24.786;2024-01-15T06:44:39;98797.22;;;-1.98;100.00
7026;BME280;3554;42.132;24.786;2024-01-15T06:47:06;98787.00;;;-1.92;100.00
7026;BME280;3554;42.132;24.786;2024-01-15T06:49:33;98795.53;;;-1.86;100.00
7026;BME280;3554;42.132;24.786;2024-01-15T06:52:00;98726.34;;;-2.27;100.00
7026;BME280;3554;42.132;24.786;2024-01-15T06:54:27;98794.63;;;-1.67;100.00
7026;BME280;3554;42.132;24.786;2024-01-15T06:56:54;98776.66;;;-1.58;100.00
7026;BME280;3554;42.132;24.786;2024-01-15T06:59:23;98770.69;;;-1.54;100.00
7026;BME280;3554;42.132;24.786;2024-01-15T07:01:50;98712.63;;;-1.91;100.00
7026;BME280;3554;42.132;24.786;2024-01-15T07:04:17;98779.16;;;-1.35;100.00
7026;BME280;3554;42.132;24.786;2024-01-15T07:06:44;98780.91;;;-1.37;100.00
7026;BME280;3554;42.132;24.786;2024-01-15T07:09:11;98769.72;;;-1.26;100.00
7026;BME280;3554;42.132;24.786;2024-01-15T07:11:38;98767.13;;;-1.23;100.00
7026;BME280;3554;42.132;24.786;2024-01-15T07:14:05;98770.59;;;-1.25;100.00
7026;BME280;3554;42.132;24.786;2024-01-15T07:16:33;98772.31;;;-1.33;100.00
7026;BME280;3554;42.132;24.786;2024-01-15T07:19:00;98766.31;;;-1.29;100.00
7026;BME280;3554;42.132;24.786;2024-01-15T07:21:27;98767.16;;;-1.21;100.00
7026;BME280;3554;42.132;24.786;2024-01-15T07:23:55;98755.09;;;-1.04;100.00
7026;BME280;3554;42.132;24.786;2024-01-15T07:26:22;98758.50;;;-1.07;100.00
7026;BME280;3554;42.132;24.786;2024-01-15T07:28:49;98738.81;;;-0.98;100.00
7026;BME280;3554;42.132;24.786;2024-01-15T07:31:17;98745.66;;;-1.00;100.00
7026;BME280;3554;42.132;24.786;2024-01-15T07:33:46;98763.59;;;-0.93;100.00
7026;BME280;3554;42.132;24.786;2024-01-15T07:36:13;98750.72;;;-0.84;100.00
7026;BME280;3554;42.132;24.786;2024-01-15T07:38:40;98765.91;;;-0.49;100.00
7026;BME280;3554;42.132;24.786;2024-01-15T07:41:07;98759.16;;;-0.61;100.00
7026;BME280;3554;42.132;24.786;2024-01-15T07:43:34;98755.56;;;-0.39;100.00
7026;BME280;3554;42.132;24.786;2024-01-15T07:46:01;98766.50;;;-0.13;100.00
7026;BME280;3554;42.132;24.786;2024-01-15T07:48:28;98759.75;;;-0.26;100.00
7026;BME280;3554;42.132;24.786;2024-01-15T07:50:56;98758.69;;;-0.04;100.00
7026;BME280;3554;42.132;24.786;2024-01-15T07:53:23;98713.31;;;-0.11;100.00
7026;BME280;3554;42.132;24.786;2024-01-15T07:55:50;98759.22;;;0.35;100.00
7026;BME280;3554;42.132;24.786;2024-01-15T07:58:17;98754.00;;;0.42;100.00
7026;BME280;3554;42.132;24.786;2024-01-15T08:00:44;98768.63;;;0.36;100.00
7026;BME280;3554;42.132;24.786;2024-01-15T08:03:11;98766.75;;;0.51;100.00
7026;BME280;3554;42.132;24.786;2024-01-15T08:05:38;98764.94;;;0.59;100.00
7026;BME280;3554;42.132;24.786;2024-01-15T08:08:06;98768.38;;;0.60;100.00
7026;BME280;3554;42.132;24.786;2024-01-15T08:10:33;98778.69;;;0.60;100.00
7026;BME280;3554;42.132;24.786;2024-01-15T08:13:00;98771.59;;;0.80;100.00
7026;BME280;3554;42.132;24.786;2024-01-15T08:15:27;98768.13;;;0.82;100.00
7026;BME280;3554;42.132;24.786;2024-01-15T08:17:54;98790.00;;;1.18;100.00
7026;BME280;3554;42.132;24.786;2024-01-15T08:20:21;98793.19;;;1.38;100.00
7026;BME280;3554;42.132;24.786;2024-01-15T08:22:48;98788.22;;;1.23;100.00
7026;BME280;3554;42.132;24.786;2024-01-15T08:25:16;98784.59;;;1.38;100.00
7026;BME280;3554;42.132;24.786;2024-01-15T08:27:43;98767.31;;;1.46;100.00
7026;BME280;3554;42.132;24.786;2024-01-15T08:30:11;98781.38;;;1.81;100.00
7026;BME280;3554;42.132;24.786;2024-01-15T08:32:38;98778.28;;;1.58;100.00
7026;BME280;3554;42.132;24.786;2024-01-15T08:35:07;98775.59;;;1.67;100.00
7026;BME280;3554;42.132;24.786;2024-01-15T08:37:34;98740.28;;;1.71;100.00
7026;BME280;3554;42.132;24.786;2024-01-15T08:40:01;98788.66;;;2.08;100.00
7026;BME280;3554;42.132;24.786;2024-01-15T08:42:30;98768.28;;;1.93;100.00
7026;BME280;3554;42.132;24.786;2024-01-15T08:44:57;98770.63;;;2.07;100.00
7026;BME280;3554;42.132;24.786;2024-01-15T08:47:24;98755.75;;;2.21;100.00
7026;BME280;3554;42.132;24.786;2024-01-15T08:49:51;98766.09;;;2.21;100.00
7026;BME280;3554;42.132;24.786;2024-01-15T08:52:18;98727.34;;;2.22;100.00
7026;BME280;3554;42.132;24.786;2024-01-15T08:54:45;98739.78;;;2.48;100.00
7026;BME280;3554;42.132;24.786;2024-01-15T08:57:12;98714.44;;;2.24;100.00
7026;BME280;3554;42.132;24.786;2024-01-15T08:59:40;98684.13;;;2.34;100.00
7026;BME280;3554;42.132;24.786;2024-01-15T09:02:08;98730.41;;;2.43;100.00
7026;BME280;3554;42.132;24.786;2024-01-15T09:04:34;98725.91;;;2.54;100.00
7026;BME280;3554;42.132;24.786;2024-01-15T10:37:16;98547.81;;;4.19;100.00
7026;BME280;3554;42.132;24.786;2024-01-15T10:39:46;98505.47;;;4.21;100.00
7026;BME280;3554;42.132;24.786;2024-01-15T10:42:13;98545.63;;;4.34;100.00
7026;BME280;3554;42.132;24.786;2024-01-15T10:44:41;98527.91;;;4.50;100.00
7026;BME280;3554;42.132;24.786;2024-01-15T10:47:09;98531.84;;;4.62;100.00
7026;BME280;3554;42.132;24.786;2024-01-15T10:49:38;98527.03;;;4.77;100.00
7026;BME280;3554;42.132;24.786;2024-01-15T10:52:05;98532.16;;;4.80;100.00
7026;BME280;3554;42.132;24.786;2024-01-15T10:54:33;98516.09;;;4.69;100.00
7026;BME280;3554;42.132;24.786;2024-01-15T10:57:02;98537.13;;;4.86;100.00
7026;BME280;3554;42.132;24.786;2024-01-15T10:59:29;98534.47;;;5.15;100.00
7026;BME280;3554;42.132;24.786;2024-01-15T11:01:56;98515.53;;;5.38;100.00
7026;BME280;3554;42.132;24.786;2024-01-15T11:04:24;98514.72;;;5.62;100.00
7026;BME280;3554;42.132;24.786;2024-01-15T11:06:54;98533.03;;;5.82;100.00
7026;BME280;3554;42.132;24.786;2024-01-15T11:09:23;98529.19;;;5.69;100.00
7026;BME280;3554;42.132;24.786;2024-01-15T11:11:52;98427.56;;;5.32;100.00
7026;BME280;3554;42.132;24.786;2024-01-15T11:14:35;98502.13;;;5.76;100.00
7026;BME280;3554;42.132;24.786;2024-01-15T11:17:03;98495.66;;;5.88;100.00
7026;BME280;3554;42.132;24.786;2024-01-15T11:19:37;98489.53;;;5.90;100.00
7026;BME280;3554;42.132;24.786;2024-01-15T11:22:07;98492.69;;;5.74;100.00
7026;BME280;3554;42.132;24.786;2024-01-15T11:24:38;98434.25;;;5.14;100.00
7026;BME280;3554;42.132;24.786;2024-01-15T11:27:07;98490.47;;;5.38;100.00
7026;BME280;3554;42.132;24.786;2024-01-15T11:29:36;98479.53;;;5.29;100.00
7026;BME280;3554;42.132;24.786;2024-01-15T11:32:04;98495.09;;;5.29;100.00
7026;BME280;3554;42.132;24.786;2024-01-15T11:34:55;98486.63;;;5.24;100.00
7026;BME280;3554;42.132;24.786;2024-01-15T11:37:25;98447.09;;;5.17;100.00
7026;BME280;3554;42.132;24.786;2024-01-15T11:39:52;98473.59;;;5.25;100.00
7026;BME280;3554;42.132;24.786;2024-01-15T11:42:22;98474.72;;;5.43;100.00
7026;BME280;3554;42.132;24.786;2024-01-15T11:44:49;98455.72;;;5.42;100.00
7026;BME280;3554;42.132;24.786;2024-01-15T11:47:31;98460.88;;;5.44;100.00
7026;BME280;3554;42.132;24.786;2024-01-15T11:50:06;98459.91;;;5.71;100.00
7026;BME280;3554;42.132;24.786;2024-01-15T11:52:34;98458.63;;;5.83;100.00
7026;BME280;3554;42.132;24.786;2024-01-15T11:55:12;98456.50;;;5.94;100.00
7026;BME280;3554;42.132;24.786;2024-01-15T11:57:46;98466.50;;;6.04;100.00
7026;BME280;3554;42.132;24.786;2024-01-15T12:00:13;98460.22;;;5.87;100.00
7026;BME280;3554;42.132;24.786;2024-01-15T12:02:41;98455.59;;;5.95;100.00
7026;BME280;3554;42.132;24.786;2024-01-15T12:05:09;98440.47;;;5.58;100.00
7026;BME280;3554;42.132;24.786;2024-01-15T12:07:38;98426.50;;;5.37;100.00
7026;BME280;3554;42.132;24.786;2024-01-15T12:10:09;98430.53;;;5.46;100.00
7026;BME280;3554;42.132;24.786;2024-01-15T12:12:57;98442.69;;;5.44;100.00
7026;BME280;3554;42.132;24.786;2024-01-15T12:15:26;98454.25;;;5.35;100.00
7026;BME280;3554;42.132;24.786;2024-01-15T12:17:55;98454.25;;;5.35;100.00
7026;BME280;3554;42.132;24.786;2024-01-15T12:20:23;98438.31;;;5.21;100.00
7026;BME280;3554;42.132;24.786;2024-01-15T12:22:50;98441.59;;;5.26;100.00
7026;BME280;3554;42.132;24.786;2024-01-15T12:25:17;98442.72;;;5.19;100.00
7026;BME280;3554;42.132;24.786;2024-01-15T12:27:44;98445.69;;;5.07;100.00
7026;BME280;3554;42.132;24.786;2024-01-15T12:30:13;98427.59;;;5.06;100.00
7026;BME280;3554;42.132;24.786;2024-01-15T12:32:41;98413.88;;;4.78;100.00
7026;BME280;3554;42.132;24.786;2024-01-15T12:35:08;98421.44;;;4.84;100.00
7026;BME280;3554;42.132;24.786;2024-01-15T12:37:35;98367.66;;;4.38;100.00
7026;BME280;3554;42.132;24.786;2024-01-15T12:40:03;98415.41;;;4.83;100.00
7026;BME280;3554;42.132;24.786;2024-01-15T12:42:32;98424.13;;;4.81;100.00
7026;BME280;3554;42.132;24.786;2024-01-15T12:45:00;98420.03;;;5.00;100.00
7026;BME280;3554;42.132;24.786;2024-01-15T12:47:28;98424.56;;;5.19;100.00
7026;BME280;3554;42.132;24.786;2024-01-15T12:49:55;98416.13;;;5.13;100.00
7026;BME280;3554;42.132;24.786;2024-01-15T12:52:22;98365.09;;;4.89;100.00
7026;BME280;3554;42.132;24.786;2024-01-15T12:54:49;98402.16;;;5.17;100.00
7026;BME280;3554;42.132;24.786;2024-01-15T12:57:16;98415.91;;;5.19;100.00
7026;BME280;3554;42.132;24.786;2024-01-15T12:59:43;98416.78;;;5.19;100.00
7026;BME280;3554;42.132;24.786;2024-01-15T13:02:11;98414.53;;;5.33;100.00
7026;BME280;3554;42.132;24.786;2024-01-15T13:04:40;98409.72;;;4.98;100.00
7026;BME280;3554;42.132;24.786;2024-01-15T13:07:07;98389.94;;;4.96;100.00
7026;BME280;3554;42.132;24.786;2024-01-15T13:09:34;98358.69;;;4.74;100.00
7026;BME280;3554;42.132;24.786;2024-01-15T13:12:01;98396.78;;;4.97;100.00
7026;BME280;3554;42.132;24.786;2024-01-15T13:14:29;98373.13;;;4.81;100.00
7026;BME280;3554;42.132;24.786;2024-01-15T13:16:56;98379.19;;;4.82;100.00
7026;BME280;3554;42.132;24.786;2024-01-15T13:19:24;98373.38;;;4.75;100.00
7026;BME280;3554;42.132;24.786;2024-01-15T13:21:52;98366.56;;;4.45;100.00
7026;BME280;3554;42.132;24.786;2024-01-15T13:24:19;98366.13;;;4.59;100.00
7026;BME280;3554;42.132;24.786;2024-01-15T13:26:46;98362.22;;;4.72;100.00
7026;BME280;3554;42.132;24.786;2024-01-15T13:29:13;98364.19;;;4.90;100.00
7026;BME280;3554;42.132;24.786;2024-01-15T13:31:40;98378.81;;;5.17;100.00
7026;BME280;3554;42.132;24.786;2024-01-15T13:34:08;98366.75;;;5.16;100.00
7026;BME280;3554;42.132;24.786;2024-01-15T13:36:35;98376.69;;;5.28;100.00
7026;BME280;3554;42.132;24.786;2024-01-15T13:39:05;98365.00;;;5.41;100.00
7026;BME280;3554;42.132;24.786;2024-01-15T13:41:34;98357.78;;;5.24;100.00
7026;BME280;3554;42.132;24.786;2024-01-15T13:44:01;98370.97;;;5.18;100.00
7026;BME280;3554;42.132;24.786;2024-01-15T13:46:29;98374.19;;;4.76;100.00
7026;BME280;3554;42.132;24.786;2024-01-15T13:48:56;98373.00;;;4.60;100.00
7026;BME280;3554;42.132;24.786;2024-01-15T13:51:23;98366.56;;;4.71;100.00
7026;BME280;3554;42.132;24.786;2024-01-15T13:53:50;98351.88;;;4.46;100.00
7026;BME280;3554;42.132;24.786;2024-01-15T13:56:18;98349.00;;;4.55;100.00
7026;BME280;3554;42.132;24.786;2024-01-15T13:58:46;98344.91;;;4.48;100.00
7026;BME280;3554;42.132;24.786;2024-01-15T14:01:13;98345.72;;;4.50;100.00
7026;BME280;3554;42.132;24.786;2024-01-15T14:03:40;98351.63;;;4.53;100.00
7026;BME280;3554;42.132;24.786;2024-01-15T14:06:24;98354.41;;;4.73;100.00
7026;BME280;3554;42.132;24.786;2024-01-15T14:08:51;98350.47;;;4.62;100.00
7026;BME280;3554;42.132;24.786;2024-01-15T14:11:20;98349.06;;;4.78;100.00
7026;BME280;3554;42.132;24.786;2024-01-15T14:13:48;98347.84;;;4.88;100.00
7026;BME280;3554;42.132;24.786;2024-01-15T14:16:15;98346.34;;;4.82;100.00
7026;BME280;3554;42.132;24.786;2024-01-15T14:18:42;98343.69;;;4.59;100.00
7026;BME280;3554;42.132;24.786;2024-01-15T14:21:09;98341.22;;;4.79;100.00
7026;BME280;3554;42.132;24.786;2024-01-15T14:23:36;98300.75;;;4.51;100.00
7026;BME280;3554;42.132;24.786;2024-01-15T14:26:03;98332.41;;;4.85;100.00
7026;BME280;3554;42.132;24.786;2024-01-15T14:28:32;98326.28;;;4.87;100.00
7026;BME280;3554;42.132;24.786;2024-01-15T14:30:59;98333.56;;;5.01;100.00
7026;BME280;3554;42.132;24.786;2024-01-15T14:33:26;98327.03;;;4.91;100.00
7026;BME280;3554;42.132;24.786;2024-01-15T14:35:53;98287.28;;;4.66;100.00
7026;BME280;3554;42.132;24.786;2024-01-15T14:38:20;98271.94;;;4.60;100.00